sensor_id;sensor_type;location;lat;lon;timestamp;P1;durP1;ratioP1;P2;durP2;ratioP2
36377;SDS011;22402;42.746;23.606;2023-08-30T00:00:43;13.13;;;8.70;;
36377;SDS011;22402;42.746;23.606;2023-08-30T00:03:10;14.57;;;9.37;;
36377;SDS011;22402;42.746;23.606;2023-08-30T00:05:40;13.47;;;8.43;;
36377;SDS011;22402;42.746;23.606;2023-08-30T00:08:05;10.40;;;8.10;;
36377;SDS011;22402;42.746;23.606;2023-08-30T00:10:31;14.37;;;9.33;;
36377;SDS011;22402;42.746;23.606;2023-08-30T00:12:56;15.73;;;9.63;;
36377;SDS011;22402;42.746;23.606;2023-08-30T00:15:22;12.10;;;8.90;;
36377;SDS011;22402;42.746;23.606;2023-08-30T00:17:47;8.80;;;7.90;;
36377;SDS011;22402;42.746;23.606;2023-08-30T00:20:13;13.37;;;9.50;;
36377;SDS011;22402;42.746;23.606;2023-08-30T00:22:39;12.33;;;9.73;;
36377;SDS011;22402;42.746;23.606;2023-08-30T00:25:04;15.60;;;9.40;;
36377;SDS011;22402;42.746;23.606;2023-08-30T00:27:30;15.73;;;9.23;;
36377;SDS011;22402;42.746;23.606;2023-08-30T00:29:56;11.50;;;9.60;;
36377;SDS011;22402;42.746;23.606;2023-08-30T00:32:22;15.60;;;9.70;;
36377;SDS011;22402;42.746;23.606;2023-08-30T00:34:51;17.30;;;11.30;;
36377;SDS011;22402;42.746;23.606;2023-08-30T00:37:17;14.27;;;11.00;;
36377;SDS011;22402;42.746;23.606;2023-08-30T00:39:43;16.57;;;10.07;;
36377;SDS011;22402;42.746;23.606;2023-08-30T00:42:08;17.77;;;11.20;;
36377;SDS011;22402;42.746;23.606;2023-08-30T00:44:34;17.23;;;10.90;;
36377;SDS011;22402;42.746;23.606;2023-08-30T00:47:00;14.90;;;10.90;;
36377;SDS011;22402;42.746;23.606;2023-08-30T00:49:27;19.80;;;11.10;;
36377;SDS011;22402;42.746;23.606;2023-08-30T00:51:54;15.27;;;11.67;;
36377;SDS011;22402;42.746;23.606;2023-08-30T00:54:21;20.00;;;12.33;;
36377;SDS011;22402;42.746;23.606;2023-08-30T00:56:46;12.90;;;10.67;;
36377;SDS011;22402;42.746;23.606;2023-08-30T00:59:13;13.10;;;9.90;;
36377;SDS011;22402;42.746;23.606;2023-08-30T01:01:39;13.63;;;8.73;;
36377;SDS011;22402;42.746;23.606;2023-08-30T01:04:05;11.93;;;10.17;;
36377;SDS011;22402;42.746;23.606;2023-08-30T01:06:31;12.90;;;10.30;;
36377;SDS011;22402;42.746;23.606;2023-08-30T01:08:56;13.40;;;10.70;;
36377;SDS011;22402;42.746;23.606;2023-08-30T01:11:24;14.50;;;10.20;;
36377;SDS011;22402;42.746;23.606;2023-08-30T01:13:58;12.23;;;10.70;;
36377;SDS011;22402;42.746;23.606;2023-08-30T01:16:29;23.80;;;11.10;;
36377;SDS011;22402;42.746;23.606;2023-08-30T01:18:56;18.30;;;10.27;;
36377;SDS011;22402;42.746;23.606;2023-08-30T01:24:29;15.50;;;10.67;;
36377;SDS011;22402;42.746;23.606;2023-08-30T01:27:11;11.57;;;9.93;;
36377;SDS011;22402;42.746;23.606;2023-08-30T01:29:39;12.93;;;9.77;;
36377;SDS011;22402;42.746;23.606;2023-08-30T01:32:07;14.63;;;11.30;;
36377;SDS011;22402;42.746;23.606;2023-08-30T01:34:35;13.30;;;10.73;;
36377;SDS011;22402;42.746;23.606;2023-08-30T01:37:02;13.40;;;10.33;;
36377;SDS011;22402;42.746;23.606;2023-08-30T01:39:36;12.97;;;10.10;;
36377;SDS011;22402;42.746;23.606;2023-08-30T01:42:02;14.53;;;11.10;;
36377;SDS011;22402;42.746;23.606;2023-08-30T01:44:30;13.97;;;10.93;;
36377;SDS011;22402;42.746;23.606;2023-08-30T01:46:57;14.90;;;11.73;;
36377;SDS011;22402;42.746;23.606;2023-08-30T01:49:23;12.40;;;10.40;;
36377;SDS011;22402;42.746;23.606;2023-08-30T01:51:50;17.83;;;11.53;;
36377;SDS011;22402;42.746;23.606;2023-08-30T01:54:17;17.90;;;11.73;;
36377;SDS011;22402;42.746;23.606;2023-08-30T01:56:44;16.17;;;11.47;;
36377;SDS011;22402;42.746;23.606;2023-08-30T01:59:10;17.30;;;12.47;;
36377;SDS011;22402;42.746;23.606;2023-08-30T02:01:36;15.67;;;12.60;;
36377;SDS011;22402;42.746;23.606;2023-08-30T02:04:01;12.23;;;10.73;;
36377;SDS011;22402;42.746;23.606;2023-08-30T02:06:29;14.07;;;11.43;;
36377;SDS011;22402;42.746;23.606;2023-08-30T02:09:21;16.33;;;11.10;;
36377;SDS011;22402;42.746;23.606;2023-08-30T02:11:51;14.73;;;12.30;;
36377;SDS011;22402;42.746;23.606;2023-08-30T02:14:19;13.80;;;11.70;;
36377;SDS011;22402;42.746;23.606;2023-08-30T02:16:46;15.53;;;12.73;;
36377;SDS011;22402;42.746;23.606;2023-08-30T02:19:12;20.17;;;13.40;;
36377;SDS011;22402;42.746;23.606;2023-08-30T02:21:41;20.90;;;14.33;;
36377;SDS011;22402;42.746;23.606;2023-08-30T02:24:07;17.90;;;13.20;;
36377;SDS011;22402;42.746;23.606;2023-08-30T02:26:33;15.47;;;13.00;;
36377;SDS011;22402;42.746;23.606;2023-08-30T02:28:59;22.23;;;13.23;;
36377;SDS011;22402;42.746;23.606;2023-08-30T02:31:24;17.83;;;12.83;;
36377;SDS011;22402;42.746;23.606;2023-08-30T02:33:49;16.67;;;13.90;;
36377;SDS011;22402;42.746;23.606;2023-08-30T02:36:15;16.83;;;12.47;;
36377;SDS011;22402;42.746;23.606;2023-08-30T02:38:40;13.20;;;11.80;;
36377;SDS011;22402;42.746;23.606;2023-08-30T02:41:06;17.33;;;11.90;;
36377;SDS011;22402;42.746;23.606;2023-08-30T02:43:31;18.37;;;13.03;;
36377;SDS011;22402;42.746;23.606;2023-08-30T02:51:14;14.87;;;12.00;;
36377;SDS011;22402;42.746;23.606;2023-08-30T02:56:10;15.70;;;12.77;;
36377;SDS011;22402;42.746;23.606;2023-08-30T02:58:36;16.33;;;13.40;;
36377;SDS011;22402;42.746;23.606;2023-08-30T03:01:02;18.03;;;12.97;;
36377;SDS011;22402;42.746;23.606;2023-08-30T03:03:27;24.67;;;13.70;;
36377;SDS011;22402;42.746;23.606;2023-08-30T03:05:53;19.80;;;13.40;;
36377;SDS011;22402;42.746;23.606;2023-08-30T03:08:19;17.10;;;13.73;;
36377;SDS011;22402;42.746;23.606;2023-08-30T03:10:44;18.90;;;14.17;;
36377;SDS011;22402;42.746;23.606;2023-08-30T03:13:09;19.80;;;14.40;;
36377;SDS011;22402;42.746;23.606;2023-08-30T03:15:35;17.63;;;14.33;;
36377;SDS011;22402;42.746;23.606;2023-08-30T03:18:00;16.57;;;13.37;;
36377;SDS011;22402;42.746;23.606;2023-08-30T03:20:26;17.10;;;14.03;;
36377;SDS011;22402;42.746;23.606;2023-08-30T03:22:55;19.13;;;15.47;;
36377;SDS011;22402;42.746;23.606;2023-08-30T03:25:21;22.97;;;15.60;;
36377;SDS011;22402;42.746;23.606;2023-08-30T03:27:46;22.97;;;17.20;;
36377;SDS011;22402;42.746;23.606;2023-08-30T03:30:12;23.67;;;17.30;;
36377;SDS011;22402;42.746;23.606;2023-08-30T03:32:38;21.03;;;17.83;;
36377;SDS011;22402;42.746;23.606;2023-08-30T03:35:03;26.57;;;17.37;;
36377;SDS011;22402;42.746;23.606;2023-08-30T03:37:30;20.53;;;16.20;;
36377;SDS011;22402;42.746;23.606;2023-08-30T03:39:55;25.43;;;18.30;;
36377;SDS011;22402;42.746;23.606;2023-08-30T03:42:21;26.33;;;15.90;;
36377;SDS011;22402;42.746;23.606;2023-08-30T03:44:46;20.20;;;16.20;;
36377;SDS011;22402;42.746;23.606;2023-08-30T03:47:11;20.93;;;16.03;;
36377;SDS011;22402;42.746;23.606;2023-08-30T03:49:37;21.23;;;16.33;;
36377;SDS011;22402;42.746;23.606;2023-08-30T03:52:02;24.53;;;17.63;;
36377;SDS011;22402;42.746;23.606;2023-08-30T03:54:28;23.30;;;16.80;;
36377;SDS011;22402;42.746;23.606;2023-08-30T03:56:54;18.97;;;16.47;;
36377;SDS011;22402;42.746;23.606;2023-08-30T03:59:19;21.27;;;17.00;;
36377;SDS011;22402;42.746;23.606;2023-08-30T04:01:45;18.63;;;15.30;;
36377;SDS011;22402;42.746;23.606;2023-08-30T04:04:10;19.10;;;17.13;;
36377;SDS011;22402;42.746;23.606;2023-08-30T04:06:36;22.07;;;16.47;;
36377;SDS011;22402;42.746;23.606;2023-08-30T04:09:01;21.67;;;15.00;;
36377;SDS011;22402;42.746;23.606;2023-08-30T04:11:27;24.90;;;15.17;;
36377;SDS011;22402;42.746;23.606;2023-08-30T04:13:52;16.77;;;14.93;;
36377;SDS011;22402;42.746;23.606;2023-08-30T04:16:18;25.90;;;17.17;;
36377;SDS011;22402;42.746;23.606;2023-08-30T04:18:43;24.03;;;17.30;;
36377;SDS011;22402;42.746;23.606;2023-08-30T04:21:09;21.47;;;15.67;;
36377;SDS011;22402;42.746;23.606;2023-08-30T04:23:34;20.90;;;15.10;;
36377;SDS011;22402;42.746;23.606;2023-08-30T04:26:00;21.30;;;15.07;;
36377;SDS011;22402;42.746;23.606;2023-08-30T04:28:26;17.60;;;14.00;;
36377;SDS011;22402;42.746;23.606;2023-08-30T04:30:55;17.50;;;13.40;;
36377;SDS011;22402;42.746;23.606;2023-08-30T04:33:21;18.57;;;13.77;;
36377;SDS011;22402;42.746;23.606;2023-08-30T04:35:51;17.93;;;12.50;;
36377;SDS011;22402;42.746;23.606;2023-08-30T04:38:17;17.30;;;13.93;;
36377;SDS011;22402;42.746;23.606;2023-08-30T04:40:43;22.70;;;14.00;;
36377;SDS011;22402;42.746;23.606;2023-08-30T04:43:08;20.23;;;12.40;;
36377;SDS011;22402;42.746;23.606;2023-08-30T04:45:34;19.00;;;13.97;;
36377;SDS011;22402;42.746;23.606;2023-08-30T04:48:00;20.50;;;13.57;;
36377;SDS011;22402;42.746;23.606;2023-08-30T04:50:25;18.70;;;13.70;;
36377;SDS011;22402;42.746;23.606;2023-08-30T04:52:51;19.50;;;13.40;;
36377;SDS011;22402;42.746;23.606;2023-08-30T04:55:16;23.80;;;13.23;;
36377;SDS011;22402;42.746;23.606;2023-08-30T04:57:42;15.87;;;12.53;;
36377;SDS011;22402;42.746;23.606;2023-08-30T05:00:10;15.50;;;12.67;;
36377;SDS011;22402;42.746;23.606;2023-08-30T05:02:37;17.50;;;12.57;;
36377;SDS011;22402;42.746;23.606;2023-08-30T05:05:02;18.87;;;11.87;;
36377;SDS011;22402;42.746;23.606;2023-08-30T05:07:28;14.13;;;11.90;;
36377;SDS011;22402;42.746;23.606;2023-08-30T05:09:54;14.10;;;9.53;;
36377;SDS011;22402;42.746;23.606;2023-08-30T05:12:19;14.93;;;11.97;;
36377;SDS011;22402;42.746;23.606;2023-08-30T05:14:44;13.80;;;11.00;;
36377;SDS011;22402;42.746;23.606;2023-08-30T05:17:10;13.80;;;10.60;;
36377;SDS011;22402;42.746;23.606;2023-08-30T05:19:37;15.57;;;11.40;;
36377;SDS011;22402;42.746;23.606;2023-08-30T05:22:02;12.50;;;10.93;;
36377;SDS011;22402;42.746;23.606;2023-08-30T05:24:28;18.20;;;11.13;;
36377;SDS011;22402;42.746;23.606;2023-08-30T05:26:54;10.87;;;9.77;;
36377;SDS011;22402;42.746;23.606;2023-08-30T05:29:19;16.90;;;9.40;;
36377;SDS011;22402;42.746;23.606;2023-08-30T05:31:45;11.03;;;9.83;;
36377;SDS011;22402;42.746;23.606;2023-08-30T05:34:10;10.93;;;9.20;;
36377;SDS011;22402;42.746;23.606;2023-08-30T05:36:36;10.90;;;9.13;;
36377;SDS011;22402;42.746;23.606;2023-08-30T05:39:02;14.67;;;9.30;;
36377;SDS011;22402;42.746;23.606;2023-08-30T05:41:28;14.17;;;10.00;;
36377;SDS011;22402;42.746;23.606;2023-08-30T05:43:54;13.47;;;10.60;;
36377;SDS011;22402;42.746;23.606;2023-08-30T05:46:20;15.23;;;11.30;;
36377;SDS011;22402;42.746;23.606;2023-08-30T05:48:46;16.20;;;10.90;;
36377;SDS011;22402;42.746;23.606;2023-08-30T05:51:11;19.50;;;11.90;;
36377;SDS011;22402;42.746;23.606;2023-08-30T05:53:37;15.37;;;11.00;;
36377;SDS011;22402;42.746;23.606;2023-08-30T05:56:03;13.63;;;10.83;;
36377;SDS011;22402;42.746;23.606;2023-08-30T05:58:29;15.20;;;11.37;;
36377;SDS011;22402;42.746;23.606;2023-08-30T06:00:55;13.20;;;11.07;;
36377;SDS011;22402;42.746;23.606;2023-08-30T06:03:21;15.23;;;11.37;;
36377;SDS011;22402;42.746;23.606;2023-08-30T06:05:46;13.10;;;10.57;;
36377;SDS011;22402;42.746;23.606;2023-08-30T06:08:13;14.93;;;12.33;;
36377;SDS011;22402;42.746;23.606;2023-08-30T06:10:39;13.50;;;11.20;;
36377;SDS011;22402;42.746;23.606;2023-08-30T06:13:05;19.00;;;10.67;;
36377;SDS011;22402;42.746;23.606;2023-08-30T06:15:30;14.97;;;10.80;;
36377;SDS011;22402;42.746;23.606;2023-08-30T06:17:55;12.00;;;10.10;;
36377;SDS011;22402;42.746;23.606;2023-08-30T06:20:21;12.80;;;9.40;;
36377;SDS011;22402;42.746;23.606;2023-08-30T06:22:47;12.90;;;10.10;;
36377;SDS011;22402;42.746;23.606;2023-08-30T06:25:12;12.23;;;8.87;;
36377;SDS011;22402;42.746;23.606;2023-08-30T06:27:40;10.70;;;8.40;;
36377;SDS011;22402;42.746;23.606;2023-08-30T06:30:08;9.97;;;8.37;;
36377;SDS011;22402;42.746;23.606;2023-08-30T06:32:34;11.60;;;7.90;;
36377;SDS011;22402;42.746;23.606;2023-08-30T06:34:59;9.97;;;8.57;;
36377;SDS011;22402;42.746;23.606;2023-08-30T06:37:25;18.37;;;9.57;;
36377;SDS011;22402;42.746;23.606;2023-08-30T06:39:51;10.60;;;8.20;;
36377;SDS011;22402;42.746;23.606;2023-08-30T06:42:16;13.30;;;8.20;;
36377;SDS011;22402;42.746;23.606;2023-08-30T06:44:42;10.60;;;7.53;;
36377;SDS011;22402;42.746;23.606;2023-08-30T06:47:08;10.80;;;7.80;;
36377;SDS011;22402;42.746;23.606;2023-08-30T06:49:33;12.13;;;7.33;;
36377;SDS011;22402;42.746;23.606;2023-08-30T06:51:59;9.67;;;8.13;;
36377;SDS011;22402;42.746;23.606;2023-08-30T06:54:28;9.93;;;7.50;;
36377;SDS011;22402;42.746;23.606;2023-08-30T06:56:58;11.03;;;8.00;;
36377;SDS011;22402;42.746;23.606;2023-08-30T06:59:27;10.47;;;7.30;;
36377;SDS011;22402;42.746;23.606;2023-08-30T07:01:53;9.80;;;7.77;;
36377;SDS011;22402;42.746;23.606;2023-08-30T07:04:19;10.50;;;7.97;;
36377;SDS011;22402;42.746;23.606;2023-08-30T07:06:45;11.13;;;7.80;;
36377;SDS011;22402;42.746;23.606;2023-08-30T07:09:10;7.80;;;6.40;;
36377;SDS011;22402;42.746;23.606;2023-08-30T07:11:37;7.67;;;6.80;;
36377;SDS011;22402;42.746;23.606;2023-08-30T07:14:03;10.30;;;6.57;;
36377;SDS011;22402;42.746;23.606;2023-08-30T07:16:29;11.90;;;7.17;;
36377;SDS011;22402;42.746;23.606;2023-08-30T07:18:56;8.30;;;5.90;;
36377;SDS011;22402;42.746;23.606;2023-08-30T07:21:22;10.80;;;7.47;;
36377;SDS011;22402;42.746;23.606;2023-08-30T07:23:48;10.40;;;6.37;;
36377;SDS011;22402;42.746;23.606;2023-08-30T07:26:13;7.23;;;6.53;;
36377;SDS011;22402;42.746;23.606;2023-08-30T07:28:39;9.10;;;6.60;;
36377;SDS011;22402;42.746;23.606;2023-08-30T07:31:04;7.67;;;6.40;;
36377;SDS011;22402;42.746;23.606;2023-08-30T07:33:30;5.97;;;5.43;;
36377;SDS011;22402;42.746;23.606;2023-08-30T07:35:56;9.57;;;6.67;;
36377;SDS011;22402;42.746;23.606;2023-08-30T07:38:22;10.90;;;6.30;;
36377;SDS011;22402;42.746;23.606;2023-08-30T07:40:47;8.13;;;5.70;;
36377;SDS011;22402;42.746;23.606;2023-08-30T07:43:13;7.70;;;6.57;;
36377;SDS011;22402;42.746;23.606;2023-08-30T07:45:38;7.93;;;5.77;;
36377;SDS011;22402;42.746;23.606;2023-08-30T07:48:04;9.93;;;6.37;;
36377;SDS011;22402;42.746;23.606;2023-08-30T07:50:30;9.63;;;6.57;;
36377;SDS011;22402;42.746;23.606;2023-08-30T07:52:55;7.67;;;6.50;;
36377;SDS011;22402;42.746;23.606;2023-08-30T07:55:20;7.10;;;5.60;;
36377;SDS011;22402;42.746;23.606;2023-08-30T07:57:49;7.97;;;6.67;;
36377;SDS011;22402;42.746;23.606;2023-08-30T08:00:15;8.83;;;5.83;;
36377;SDS011;22402;42.746;23.606;2023-08-30T08:02:43;10.00;;;6.80;;
36377;SDS011;22402;42.746;23.606;2023-08-30T08:05:09;7.80;;;6.10;;
36377;SDS011;22402;42.746;23.606;2023-08-30T08:07:37;11.13;;;5.77;;
36377;SDS011;22402;42.746;23.606;2023-08-30T08:10:03;5.53;;;5.03;;
36377;SDS011;22402;42.746;23.606;2023-08-30T08:12:30;7.73;;;5.70;;
36377;SDS011;22402;42.746;23.606;2023-08-30T08:14:56;9.80;;;5.27;;
36377;SDS011;22402;42.746;23.606;2023-08-30T08:17:21;6.00;;;5.20;;
36377;SDS011;22402;42.746;23.606;2023-08-30T08:19:47;8.70;;;5.50;;
36377;SDS011;22402;42.746;23.606;2023-08-30T08:22:12;8.03;;;5.03;;
36377;SDS011;22402;42.746;23.606;2023-08-30T08:24:38;12.93;;;6.30;;
36377;SDS011;22402;42.746;23.606;2023-08-30T08:27:04;8.60;;;5.23;;
36377;SDS011;22402;42.746;23.606;2023-08-30T08:29:31;6.80;;;5.40;;
36377;SDS011;22402;42.746;23.606;2023-08-30T08:31:56;6.30;;;5.17;;
36377;SDS011;22402;42.746;23.606;2023-08-30T08:34:22;11.90;;;4.93;;
36377;SDS011;22402;42.746;23.606;2023-08-30T08:36:47;8.03;;;4.70;;
36377;SDS011;22402;42.746;23.606;2023-08-30T08:39:13;5.50;;;4.50;;
36377;SDS011;22402;42.746;23.606;2023-08-30T08:44:07;6.13;;;4.50;;
36377;SDS011;22402;42.746;23.606;2023-08-30T08:46:34;4.47;;;3.80;;
36377;SDS011;22402;42.746;23.606;2023-08-30T08:49:16;4.47;;;4.07;;
36377;SDS011;22402;42.746;23.606;2023-08-30T08:51:42;4.63;;;4.23;;
36377;SDS011;22402;42.746;23.606;2023-08-30T08:54:09;4.63;;;4.10;;
36377;SDS011;22402;42.746;23.606;2023-08-30T08:56:36;5.37;;;3.90;;
36377;SDS011;22402;42.746;23.606;2023-08-30T08:59:02;4.67;;;3.70;;
36377;SDS011;22402;42.746;23.606;2023-08-30T09:01:28;5.40;;;3.70;;
36377;SDS011;22402;42.746;23.606;2023-08-30T09:03:54;3.57;;;3.20;;
36377;SDS011;22402;42.746;23.606;2023-08-30T09:06:20;12.23;;;4.20;;
36377;SDS011;22402;42.746;23.606;2023-08-30T09:08:46;4.80;;;3.10;;
36377;SDS011;22402;42.746;23.606;2023-08-30T09:11:11;5.33;;;3.80;;
36377;SDS011;22402;42.746;23.606;2023-08-30T09:13:37;5.87;;;3.77;;
36377;SDS011;22402;42.746;23.606;2023-08-30T09:16:02;4.53;;;3.90;;
36377;SDS011;22402;42.746;23.606;2023-08-30T09:18:36;5.90;;;3.80;;
36377;SDS011;22402;42.746;23.606;2023-08-30T09:21:08;3.87;;;3.50;;
36377;SDS011;22402;42.746;23.606;2023-08-30T09:23:34;4.23;;;3.10;;
36377;SDS011;22402;42.746;23.606;2023-08-30T09:26:00;4.33;;;2.77;;
36377;SDS011;22402;42.746;23.606;2023-08-30T09:28:27;6.57;;;3.47;;
36377;SDS011;22402;42.746;23.606;2023-08-30T09:30:53;3.63;;;2.80;;
36377;SDS011;22402;42.746;23.606;2023-08-30T09:33:22;3.63;;;2.77;;
36377;SDS011;22402;42.746;23.606;2023-08-30T09:35:57;4.00;;;3.00;;
36377;SDS011;22402;42.746;23.606;2023-08-30T09:38:23;6.63;;;3.03;;
36377;SDS011;22402;42.746;23.606;2023-08-30T09:40:49;4.23;;;3.10;;
36377;SDS011;22402;42.746;23.606;2023-08-30T09:43:17;3.30;;;2.93;;
36377;SDS011;22402;42.746;23.606;2023-08-30T09:45:43;2.77;;;2.27;;
36377;SDS011;22402;42.746;23.606;2023-08-30T09:48:09;3.60;;;2.60;;
36377;SDS011;22402;42.746;23.606;2023-08-30T09:50:35;3.20;;;2.80;;
36377;SDS011;22402;42.746;23.606;2023-08-30T09:53:06;2.95;;;2.72;;
36377;SDS011;22402;42.746;23.606;2023-08-30T09:55:33;4.38;;;2.63;;
36377;SDS011;22402;42.746;23.606;2023-08-30T09:58:00;2.47;;;2.28;;
36377;SDS011;22402;42.746;23.606;2023-08-30T10:00:30;3.03;;;2.33;;
36377;SDS011;22402;42.746;23.606;2023-08-30T10:02:57;3.50;;;2.30;;
36377;SDS011;22402;42.746;23.606;2023-08-30T10:05:23;3.35;;;2.53;;
36377;SDS011;22402;42.746;23.606;2023-08-30T10:07:51;3.13;;;2.17;;
36377;SDS011;22402;42.746;23.606;2023-08-30T10:10:18;3.20;;;2.90;;
36377;SDS011;22402;42.746;23.606;2023-08-30T10:12:46;2.92;;;2.20;;
36377;SDS011;22402;42.746;23.606;2023-08-30T10:15:11;3.05;;;2.03;;
36377;SDS011;22402;42.746;23.606;2023-08-30T10:17:37;3.00;;;2.80;;
36377;SDS011;22402;42.746;23.606;2023-08-30T10:20:06;5.25;;;2.78;;
36377;SDS011;22402;42.746;23.606;2023-08-30T10:22:33;2.70;;;2.50;;
36377;SDS011;22402;42.746;23.606;2023-08-30T10:25:02;3.55;;;2.97;;
36377;SDS011;22402;42.746;23.606;2023-08-30T10:27:34;2.47;;;2.10;;
36377;SDS011;22402;42.746;23.606;2023-08-30T10:30:01;3.53;;;2.70;;
36377;SDS011;22402;42.746;23.606;2023-08-30T10:32:30;3.00;;;2.10;;
36377;SDS011;22402;42.746;23.606;2023-08-30T10:35:00;5.30;;;3.00;;
36377;SDS011;22402;42.746;23.606;2023-08-30T10:37:28;3.65;;;2.80;;
36377;SDS011;22402;42.746;23.606;2023-08-30T10:39:58;2.25;;;2.05;;
36377;SDS011;22402;42.746;23.606;2023-08-30T10:42:25;3.20;;;2.28;;
36377;SDS011;22402;42.746;23.606;2023-08-30T10:44:52;3.30;;;3.00;;
36377;SDS011;22402;42.746;23.606;2023-08-30T10:47:26;6.57;;;2.42;;
36377;SDS011;22402;42.746;23.606;2023-08-30T10:49:56;2.85;;;2.50;;
36377;SDS011;22402;42.746;23.606;2023-08-30T10:52:22;3.40;;;3.10;;
36377;SDS011;22402;42.746;23.606;2023-08-30T10:54:49;3.00;;;2.70;;
36377;SDS011;22402;42.746;23.606;2023-08-30T10:57:19;2.60;;;2.40;;
36377;SDS011;22402;42.746;23.606;2023-08-30T11:00:05;2.40;;;2.20;;
36377;SDS011;22402;42.746;23.606;2023-08-30T11:02:33;5.53;;;2.67;;
36377;SDS011;22402;42.746;23.606;2023-08-30T11:04:59;2.95;;;2.75;;
36377;SDS011;22402;42.746;23.606;2023-08-30T11:07:28;4.20;;;3.00;;
36377;SDS011;22402;42.746;23.606;2023-08-30T11:09:54;4.77;;;3.00;;
36377;SDS011;22402;42.746;23.606;2023-08-30T11:12:23;4.03;;;2.70;;
36377;SDS011;22402;42.746;23.606;2023-08-30T11:14:53;3.90;;;3.27;;
36377;SDS011;22402;42.746;23.606;2023-08-30T11:17:19;4.77;;;3.77;;
36377;SDS011;22402;42.746;23.606;2023-08-30T11:19:45;5.23;;;3.93;;
36377;SDS011;22402;42.746;23.606;2023-08-30T11:22:14;5.53;;;3.60;;
36377;SDS011;22402;42.746;23.606;2023-08-30T11:24:41;5.30;;;4.03;;
36377;SDS011;22402;42.746;23.606;2023-08-30T11:27:07;7.27;;;4.57;;
36377;SDS011;22402;42.746;23.606;2023-08-30T11:29:33;6.20;;;3.83;;
36377;SDS011;22402;42.746;23.606;2023-08-30T11:31:58;4.90;;;3.60;;
36377;SDS011;22402;42.746;23.606;2023-08-30T11:34:24;4.90;;;3.73;;
36377;SDS011;22402;42.746;23.606;2023-08-30T11:36:49;5.63;;;4.00;;
36377;SDS011;22402;42.746;23.606;2023-08-30T11:39:16;6.10;;;3.47;;
36377;SDS011;22402;42.746;23.606;2023-08-30T11:41:42;4.87;;;3.73;;
36377;SDS011;22402;42.746;23.606;2023-08-30T11:44:08;4.87;;;3.03;;
36377;SDS011;22402;42.746;23.606;2023-08-30T11:46:33;4.90;;;2.80;;
36377;SDS011;22402;42.746;23.606;2023-08-30T11:48:58;4.87;;;3.43;;
36377;SDS011;22402;42.746;23.606;2023-08-30T11:51:25;3.20;;;2.30;;
36377;SDS011;22402;42.746;23.606;2023-08-30T11:53:50;3.80;;;2.90;;
36377;SDS011;22402;42.746;23.606;2023-08-30T11:56:17;5.93;;;2.60;;
36377;SDS011;22402;42.746;23.606;2023-08-30T11:58:44;5.60;;;3.10;;
36377;SDS011;22402;42.746;23.606;2023-08-30T12:01:09;3.93;;;2.80;;
36377;SDS011;22402;42.746;23.606;2023-08-30T12:03:36;4.00;;;3.23;;
36377;SDS011;22402;42.746;23.606;2023-08-30T12:06:01;6.07;;;3.40;;
36377;SDS011;22402;42.746;23.606;2023-08-30T12:08:30;6.53;;;3.80;;
36377;SDS011;22402;42.746;23.606;2023-08-30T12:10:57;5.63;;;3.40;;
36377;SDS011;22402;42.746;23.606;2023-08-30T12:15:55;5.23;;;3.60;;
36377;SDS011;22402;42.746;23.606;2023-08-30T12:18:32;2.93;;;2.63;;
36377;SDS011;22402;42.746;23.606;2023-08-30T12:21:01;5.70;;;3.50;;
36377;SDS011;22402;42.746;23.606;2023-08-30T12:23:29;4.03;;;3.03;;
36377;SDS011;22402;42.746;23.606;2023-08-30T12:26:06;8.70;;;2.97;;
36377;SDS011;22402;42.746;23.606;2023-08-30T12:28:33;6.40;;;3.27;;
36377;SDS011;22402;42.746;23.606;2023-08-30T12:31:03;4.70;;;3.30;;
36377;SDS011;22402;42.746;23.606;2023-08-30T12:33:35;4.63;;;3.30;;
36377;SDS011;22402;42.746;23.606;2023-08-30T12:36:01;5.20;;;3.57;;
36377;SDS011;22402;42.746;23.606;2023-08-30T12:38:26;4.03;;;3.20;;
36377;SDS011;22402;42.746;23.606;2023-08-30T12:40:53;8.30;;;2.73;;
36377;SDS011;22402;42.746;23.606;2023-08-30T12:43:20;4.67;;;3.77;;
36377;SDS011;22402;42.746;23.606;2023-08-30T12:45:46;3.67;;;3.37;;
36377;SDS011;22402;42.746;23.606;2023-08-30T12:48:12;3.30;;;3.10;;
36377;SDS011;22402;42.746;23.606;2023-08-30T12:50:42;3.70;;;2.87;;
36377;SDS011;22402;42.746;23.606;2023-08-30T12:53:09;3.37;;;2.73;;
36377;SDS011;22402;42.746;23.606;2023-08-30T12:55:35;2.50;;;2.30;;
36377;SDS011;22402;42.746;23.606;2023-08-30T12:58:00;3.47;;;2.92;;
36377;SDS011;22402;42.746;23.606;2023-08-30T13:00:30;3.60;;;3.08;;
36377;SDS011;22402;42.746;23.606;2023-08-30T13:02:55;2.72;;;2.15;;
36377;SDS011;22402;42.746;23.606;2023-08-30T13:05:21;3.25;;;2.70;;
36377;SDS011;22402;42.746;23.606;2023-08-30T13:07:47;2.55;;;2.35;;
36377;SDS011;22402;42.746;23.606;2023-08-30T13:10:13;2.38;;;2.22;;
36377;SDS011;22402;42.746;23.606;2023-08-30T13:12:38;3.13;;;2.60;;
36377;SDS011;22402;42.746;23.606;2023-08-30T13:15:05;5.57;;;2.03;;
36377;SDS011;22402;42.746;23.606;2023-08-30T13:17:31;3.08;;;2.67;;
36377;SDS011;22402;42.746;23.606;2023-08-30T13:19:56;4.80;;;3.08;;
36377;SDS011;22402;42.746;23.606;2023-08-30T13:22:23;3.00;;;2.60;;
36377;SDS011;22402;42.746;23.606;2023-08-30T13:24:49;5.93;;;2.90;;
36377;SDS011;22402;42.746;23.606;2023-08-30T13:27:14;2.70;;;2.17;;
36377;SDS011;22402;42.746;23.606;2023-08-30T13:29:40;3.03;;;2.83;;
36377;SDS011;22402;42.746;23.606;2023-08-30T13:32:06;3.33;;;3.03;;
36377;SDS011;22402;42.746;23.606;2023-08-30T13:34:31;3.03;;;2.72;;
36377;SDS011;22402;42.746;23.606;2023-08-30T13:36:57;3.70;;;3.40;;
36377;SDS011;22402;42.746;23.606;2023-08-30T13:39:22;3.00;;;2.70;;
36377;SDS011;22402;42.746;23.606;2023-08-30T13:41:48;3.13;;;2.83;;
36377;SDS011;22402;42.746;23.606;2023-08-30T13:44:14;5.37;;;3.50;;
36377;SDS011;22402;42.746;23.606;2023-08-30T13:46:40;4.13;;;3.67;;
36377;SDS011;22402;42.746;23.606;2023-08-30T13:49:06;4.50;;;3.77;;
36377;SDS011;22402;42.746;23.606;2023-08-30T13:51:31;4.30;;;3.90;;
36377;SDS011;22402;42.746;23.606;2023-08-30T13:54:00;3.40;;;3.13;;
36377;SDS011;22402;42.746;23.606;2023-08-30T13:56:25;5.03;;;3.87;;
36377;SDS011;22402;42.746;23.606;2023-08-30T13:58:51;5.40;;;3.70;;
36377;SDS011;22402;42.746;23.606;2023-08-30T14:01:17;5.73;;;4.00;;
36377;SDS011;22402;42.746;23.606;2023-08-30T14:03:45;5.20;;;3.87;;
36377;SDS011;22402;42.746;23.606;2023-08-30T14:06:10;6.77;;;4.10;;
36377;SDS011;22402;42.746;23.606;2023-08-30T14:08:36;4.40;;;3.77;;
36377;SDS011;22402;42.746;23.606;2023-08-30T14:11:02;5.30;;;4.43;;
36377;SDS011;22402;42.746;23.606;2023-08-30T14:13:28;5.67;;;4.00;;
36377;SDS011;22402;42.746;23.606;2023-08-30T14:15:58;5.10;;;4.10;;
36377;SDS011;22402;42.746;23.606;2023-08-30T14:18:28;8.50;;;4.20;;
36377;SDS011;22402;42.746;23.606;2023-08-30T14:20:56;5.00;;;3.57;;
36377;SDS011;22402;42.746;23.606;2023-08-30T14:23:25;4.90;;;3.93;;
36377;SDS011;22402;42.746;23.606;2023-08-30T14:25:55;4.87;;;3.67;;
36377;SDS011;22402;42.746;23.606;2023-08-30T14:28:27;8.83;;;4.57;;
36377;SDS011;22402;42.746;23.606;2023-08-30T14:30:53;4.60;;;4.10;;
36377;SDS011;22402;42.746;23.606;2023-08-30T14:33:19;3.97;;;3.53;;
36377;SDS011;22402;42.746;23.606;2023-08-30T14:35:45;6.33;;;3.87;;